Terminal Aerodrome Forecast
Issued by NWS Norman, OK

Home | Current Version | Previous Version | Text Only | Print | Product List | Glossary On
Versions: 1 2 3 4 5 6 7 8 9 10 11 12 13 14 15 16 17 18 19 20 21 22 23
000
FTUS44 KOUN 021739
TAFSPS
TAF
KSPS 021739Z 0218/0318 22016G23KT P6SM FEW060 SCT250
     FM030100 17012KT P6SM FEW050 BKN200
     FM030700 19010KT P6SM BKN050 PROB30 0310/0316 3SM -TSRA BR
      OVC040CB=

USA.gov is the U.S. government's official web portal to all federal, state and local government web resources and services.